sensor_id;sensor_type;location;lat;lon;timestamp;temperature;humidity
31765;DHT22;18338;53.240;8.798;2023-05-07T00:00:06;10.40;99.90
31765;DHT22;18338;53.240;8.798;2023-05-07T00:02:39;10.30;99.90
31765;DHT22;18338;53.240;8.798;2023-05-07T00:05:08;10.20;99.90
31765;DHT22;18338;53.240;8.798;2023-05-07T00:07:35;10.20;99.90
31765;DHT22;18338;53.240;8.798;2023-05-07T00:10:03;10.20;99.90
31765;DHT22;18338;53.240;8.798;2023-05-07T00:12:30;10.10;99.90
31765;DHT22;18338;53.240;8.798;2023-05-07T00:14:57;10.10;99.90
31765;DHT22;18338;53.240;8.798;2023-05-07T00:17:25;10.00;99.90
31765;DHT22;18338;53.240;8.798;2023-05-07T00:19:51;10.10;99.90
31765;DHT22;18338;53.240;8.798;2023-05-07T00:22:18;10.00;99.90
31765;DHT22;18338;53.240;8.798;2023-05-07T00:24:45;10.10;99.90
31765;DHT22;18338;53.240;8.798;2023-05-07T00:27:12;10.00;99.90
31765;DHT22;18338;53.240;8.798;2023-05-07T00:29:39;10.00;99.90
31765;DHT22;18338;53.240;8.798;2023-05-07T00:32:05;10.00;99.90
31765;DHT22;18338;53.240;8.798;2023-05-07T00:34:32;10.00;99.90
31765;DHT22;18338;53.240;8.798;2023-05-07T00:36:59;10.00;99.90
31765;DHT22;18338;53.240;8.798;2023-05-07T00:39:25;10.00;99.90
31765;DHT22;18338;53.240;8.798;2023-05-07T00:41:52;9.90;99.90
31765;DHT22;18338;53.240;8.798;2023-05-07T00:44:19;9.90;99.90
31765;DHT22;18338;53.240;8.798;2023-05-07T00:46:46;9.90;99.90
31765;DHT22;18338;53.240;8.798;2023-05-07T00:49:16;9.90;99.90
31765;DHT22;18338;53.240;8.798;2023-05-07T00:51:44;9.90;99.90
31765;DHT22;18338;53.240;8.798;2023-05-07T00:54:11;9.90;99.90
31765;DHT22;18338;53.240;8.798;2023-05-07T00:56:38;9.90;99.90
31765;DHT22;18338;53.240;8.798;2023-05-07T00:59:06;9.90;99.90
31765;DHT22;18338;53.240;8.798;2023-05-07T01:01:33;9.90;99.90
31765;DHT22;18338;53.240;8.798;2023-05-07T01:04:00;9.90;99.90
31765;DHT22;18338;53.240;8.798;2023-05-07T01:06:27;9.80;99.90
31765;DHT22;18338;53.240;8.798;2023-05-07T01:08:56;9.80;99.90
31765;DHT22;18338;53.240;8.798;2023-05-07T01:11:24;9.80;99.90
31765;DHT22;18338;53.240;8.798;2023-05-07T01:13:52;9.80;99.90
31765;DHT22;18338;53.240;8.798;2023-05-07T01:16:19;9.80;99.90
31765;DHT22;18338;53.240;8.798;2023-05-07T01:18:46;9.80;99.90
31765;DHT22;18338;53.240;8.798;2023-05-07T01:21:16;9.80;99.90
31765;DHT22;18338;53.240;8.798;2023-05-07T01:23:44;9.80;99.90
31765;DHT22;18338;53.240;8.798;2023-05-07T01:26:12;9.70;99.90
31765;DHT22;18338;53.240;8.798;2023-05-07T01:28:39;9.70;99.90
31765;DHT22;18338;53.240;8.798;2023-05-07T01:31:06;9.70;99.90
31765;DHT22;18338;53.240;8.798;2023-05-07T01:33:35;9.70;99.90
31765;DHT22;18338;53.240;8.798;2023-05-07T01:36:03;9.70;99.90
31765;DHT22;18338;53.240;8.798;2023-05-07T01:38:33;9.60;99.90
31765;DHT22;18338;53.240;8.798;2023-05-07T01:40:59;9.60;99.90
31765;DHT22;18338;53.240;8.798;2023-05-07T01:43:26;9.60;99.90
31765;DHT22;18338;53.240;8.798;2023-05-07T01:45:53;9.60;99.90
31765;DHT22;18338;53.240;8.798;2023-05-07T01:48:21;9.60;99.90
31765;DHT22;18338;53.240;8.798;2023-05-07T01:50:47;9.60;99.90
31765;DHT22;18338;53.240;8.798;2023-05-07T01:53:14;9.60;99.90
31765;DHT22;18338;53.240;8.798;2023-05-07T01:55:41;9.60;99.90
31765;DHT22;18338;53.240;8.798;2023-05-07T01:58:08;9.60;99.90
31765;DHT22;18338;53.240;8.798;2023-05-07T02:00:34;9.60;99.90
31765;DHT22;18338;53.240;8.798;2023-05-07T02:03:01;9.60;99.90
31765;DHT22;18338;53.240;8.798;2023-05-07T02:05:28;9.50;99.90
31765;DHT22;18338;53.240;8.798;2023-05-07T02:07:54;9.40;99.90
31765;DHT22;18338;53.240;8.798;2023-05-07T02:10:21;9.50;99.90
31765;DHT22;18338;53.240;8.798;2023-05-07T02:12:48;9.50;99.90
31765;DHT22;18338;53.240;8.798;2023-05-07T02:15:15;9.40;99.90
31765;DHT22;18338;53.240;8.798;2023-05-07T02:17:59;9.40;99.90
31765;DHT22;18338;53.240;8.798;2023-05-07T02:20:27;9.40;99.90
31765;DHT22;18338;53.240;8.798;2023-05-07T02:22:54;9.40;99.90
31765;DHT22;18338;53.240;8.798;2023-05-07T02:25:20;9.40;99.90
31765;DHT22;18338;53.240;8.798;2023-05-07T02:27:47;9.40;99.90
31765;DHT22;18338;53.240;8.798;2023-05-07T02:30:14;9.40;99.90
31765;DHT22;18338;53.240;8.798;2023-05-07T02:32:41;9.40;99.90
31765;DHT22;18338;53.240;8.798;2023-05-07T02:35:08;9.40;99.90
31765;DHT22;18338;53.240;8.798;2023-05-07T02:37:34;9.40;99.90
31765;DHT22;18338;53.240;8.798;2023-05-07T02:40:01;9.40;99.90
31765;DHT22;18338;53.240;8.798;2023-05-07T02:42:30;9.40;99.90
31765;DHT22;18338;53.240;8.798;2023-05-07T02:44:57;9.40;99.90
31765;DHT22;18338;53.240;8.798;2023-05-07T02:47:24;9.40;99.90
31765;DHT22;18338;53.240;8.798;2023-05-07T02:49:54;9.40;99.90
31765;DHT22;18338;53.240;8.798;2023-05-07T02:52:21;9.40;99.90
31765;DHT22;18338;53.240;8.798;2023-05-07T02:54:48;9.40;99.90
31765;DHT22;18338;53.240;8.798;2023-05-07T02:57:15;9.40;99.90
31765;DHT22;18338;53.240;8.798;2023-05-07T02:59:42;9.30;99.90
31765;DHT22;18338;53.240;8.798;2023-05-07T03:02:09;9.30;99.90
31765;DHT22;18338;53.240;8.798;2023-05-07T03:04:36;9.30;99.90
31765;DHT22;18338;53.240;8.798;2023-05-07T03:07:04;9.30;99.90
31765;DHT22;18338;53.240;8.798;2023-05-07T03:09:31;9.30;99.90
31765;DHT22;18338;53.240;8.798;2023-05-07T03:11:57;9.30;99.90
31765;DHT22;18338;53.240;8.798;2023-05-07T03:14:24;9.40;99.90
31765;DHT22;18338;53.240;8.798;2023-05-07T03:16:51;9.40;99.90
31765;DHT22;18338;53.240;8.798;2023-05-07T03:19:18;9.30;99.90
31765;DHT22;18338;53.240;8.798;2023-05-07T03:21:45;9.30;99.90
31765;DHT22;18338;53.240;8.798;2023-05-07T03:24:11;9.40;99.90
31765;DHT22;18338;53.240;8.798;2023-05-07T03:26:38;9.40;99.90
31765;DHT22;18338;53.240;8.798;2023-05-07T03:29:05;9.40;99.90
31765;DHT22;18338;53.240;8.798;2023-05-07T03:31:32;9.30;99.90
31765;DHT22;18338;53.240;8.798;2023-05-07T03:33:59;9.40;99.90
31765;DHT22;18338;53.240;8.798;2023-05-07T03:36:25;9.40;99.90
31765;DHT22;18338;53.240;8.798;2023-05-07T03:38:55;9.30;99.90
31765;DHT22;18338;53.240;8.798;2023-05-07T03:41:21;9.30;99.90
31765;DHT22;18338;53.240;8.798;2023-05-07T03:43:48;9.30;99.90
31765;DHT22;18338;53.240;8.798;2023-05-07T03:46:15;9.30;99.90
31765;DHT22;18338;53.240;8.798;2023-05-07T03:48:41;9.40;99.90
31765;DHT22;18338;53.240;8.798;2023-05-07T03:51:08;9.40;99.90
31765;DHT22;18338;53.240;8.798;2023-05-07T03:53:35;9.40;99.90
31765;DHT22;18338;53.240;8.798;2023-05-07T03:56:02;9.40;99.90
31765;DHT22;18338;53.240;8.798;2023-05-07T03:58:29;9.40;99.90
31765;DHT22;18338;53.240;8.798;2023-05-07T04:00:55;9.30;99.90
31765;DHT22;18338;53.240;8.798;2023-05-07T04:03:22;9.30;99.90
31765;DHT22;18338;53.240;8.798;2023-05-07T04:05:49;9.30;99.90
31765;DHT22;18338;53.240;8.798;2023-05-07T04:08:16;9.40;99.90
31765;DHT22;18338;53.240;8.798;2023-05-07T04:10:43;9.40;99.90
31765;DHT22;18338;53.240;8.798;2023-05-07T04:13:09;9.40;99.90
31765;DHT22;18338;53.240;8.798;2023-05-07T04:15:36;9.40;99.90
31765;DHT22;18338;53.240;8.798;2023-05-07T04:18:03;9.40;99.90
31765;DHT22;18338;53.240;8.798;2023-05-07T04:20:30;9.40;99.90
31765;DHT22;18338;53.240;8.798;2023-05-07T04:22:57;9.40;99.90
31765;DHT22;18338;53.240;8.798;2023-05-07T04:25:23;9.40;99.90
31765;DHT22;18338;53.240;8.798;2023-05-07T04:27:52;9.40;99.90
31765;DHT22;18338;53.240;8.798;2023-05-07T04:30:22;9.40;99.90
31765;DHT22;18338;53.240;8.798;2023-05-07T04:32:49;9.50;99.90
31765;DHT22;18338;53.240;8.798;2023-05-07T04:35:16;9.40;99.90
31765;DHT22;18338;53.240;8.798;2023-05-07T04:37:43;9.40;99.90
31765;DHT22;18338;53.240;8.798;2023-05-07T04:40:10;9.40;99.90
31765;DHT22;18338;53.240;8.798;2023-05-07T04:42:38;9.40;99.90
31765;DHT22;18338;53.240;8.798;2023-05-07T04:45:05;9.40;99.90
31765;DHT22;18338;53.240;8.798;2023-05-07T04:47:32;9.40;99.90
31765;DHT22;18338;53.240;8.798;2023-05-07T04:49:58;9.40;99.90
31765;DHT22;18338;53.240;8.798;2023-05-07T04:52:25;9.40;99.90
31765;DHT22;18338;53.240;8.798;2023-05-07T04:54:53;9.50;99.90
31765;DHT22;18338;53.240;8.798;2023-05-07T04:57:19;9.50;99.90
31765;DHT22;18338;53.240;8.798;2023-05-07T04:59:46;9.50;99.90
31765;DHT22;18338;53.240;8.798;2023-05-07T05:02:13;9.40;99.90
31765;DHT22;18338;53.240;8.798;2023-05-07T05:04:39;9.50;99.90
31765;DHT22;18338;53.240;8.798;2023-05-07T05:07:06;9.50;99.90
31765;DHT22;18338;53.240;8.798;2023-05-07T05:09:33;9.60;99.90
31765;DHT22;18338;53.240;8.798;2023-05-07T05:11:59;9.70;99.90
31765;DHT22;18338;53.240;8.798;2023-05-07T05:14:26;9.70;99.90
31765;DHT22;18338;53.240;8.798;2023-05-07T05:16:53;9.70;99.90
31765;DHT22;18338;53.240;8.798;2023-05-07T05:19:19;9.80;99.90
31765;DHT22;18338;53.240;8.798;2023-05-07T05:21:46;9.70;99.90
31765;DHT22;18338;53.240;8.798;2023-05-07T05:24:13;9.80;99.90
31765;DHT22;18338;53.240;8.798;2023-05-07T05:26:39;9.80;99.90
31765;DHT22;18338;53.240;8.798;2023-05-07T05:29:06;9.90;99.90
31765;DHT22;18338;53.240;8.798;2023-05-07T05:31:34;9.90;99.90
31765;DHT22;18338;53.240;8.798;2023-05-07T05:34:01;10.00;99.90
31765;DHT22;18338;53.240;8.798;2023-05-07T05:36:28;10.00;99.90
31765;DHT22;18338;53.240;8.798;2023-05-07T05:38:55;10.00;99.90
31765;DHT22;18338;53.240;8.798;2023-05-07T05:41:22;10.00;99.90
31765;DHT22;18338;53.240;8.798;2023-05-07T05:43:48;10.10;99.90
31765;DHT22;18338;53.240;8.798;2023-05-07T05:46:15;10.10;99.90
31765;DHT22;18338;53.240;8.798;2023-05-07T05:48:42;10.10;99.90
31765;DHT22;18338;53.240;8.798;2023-05-07T05:51:08;10.20;99.90
31765;DHT22;18338;53.240;8.798;2023-05-07T05:53:35;10.20;99.90
31765;DHT22;18338;53.240;8.798;2023-05-07T05:56:01;10.30;99.90
31765;DHT22;18338;53.240;8.798;2023-05-07T05:58:28;10.40;99.90
31765;DHT22;18338;53.240;8.798;2023-05-07T06:00:55;10.40;99.90
31765;DHT22;18338;53.240;8.798;2023-05-07T06:03:22;10.60;99.90
31765;DHT22;18338;53.240;8.798;2023-05-07T06:05:49;10.80;99.90
31765;DHT22;18338;53.240;8.798;2023-05-07T06:08:16;11.00;99.90
31765;DHT22;18338;53.240;8.798;2023-05-07T06:10:43;11.00;99.90
31765;DHT22;18338;53.240;8.798;2023-05-07T06:13:10;11.00;99.90
31765;DHT22;18338;53.240;8.798;2023-05-07T06:15:37;11.00;99.90
31765;DHT22;18338;53.240;8.798;2023-05-07T06:18:03;11.10;99.90
31765;DHT22;18338;53.240;8.798;2023-05-07T06:20:30;11.00;99.90
31765;DHT22;18338;53.240;8.798;2023-05-07T06:22:56;11.00;99.90
31765;DHT22;18338;53.240;8.798;2023-05-07T06:25:23;10.90;99.90
31765;DHT22;18338;53.240;8.798;2023-05-07T06:27:50;11.00;99.90
31765;DHT22;18338;53.240;8.798;2023-05-07T06:30:16;11.10;99.90
31765;DHT22;18338;53.240;8.798;2023-05-07T06:32:43;11.10;99.90
31765;DHT22;18338;53.240;8.798;2023-05-07T06:35:10;11.20;99.90
31765;DHT22;18338;53.240;8.798;2023-05-07T06:37:38;11.30;99.90
31765;DHT22;18338;53.240;8.798;2023-05-07T06:40:09;11.40;99.90
31765;DHT22;18338;53.240;8.798;2023-05-07T06:42:36;11.40;99.90
31765;DHT22;18338;53.240;8.798;2023-05-07T06:45:04;11.50;99.90
31765;DHT22;18338;53.240;8.798;2023-05-07T06:47:31;11.60;99.90
31765;DHT22;18338;53.240;8.798;2023-05-07T06:49:58;11.70;99.90
31765;DHT22;18338;53.240;8.798;2023-05-07T06:52:24;11.70;99.90
31765;DHT22;18338;53.240;8.798;2023-05-07T06:54:51;11.80;99.90
31765;DHT22;18338;53.240;8.798;2023-05-07T06:57:18;11.70;99.90
31765;DHT22;18338;53.240;8.798;2023-05-07T06:59:44;11.70;99.90
31765;DHT22;18338;53.240;8.798;2023-05-07T07:02:11;11.80;99.90
31765;DHT22;18338;53.240;8.798;2023-05-07T07:04:37;11.90;99.90
31765;DHT22;18338;53.240;8.798;2023-05-07T07:07:05;12.10;99.90
31765;DHT22;18338;53.240;8.798;2023-05-07T07:09:32;12.00;99.90
31765;DHT22;18338;53.240;8.798;2023-05-07T07:11:59;12.00;99.90
31765;DHT22;18338;53.240;8.798;2023-05-07T07:14:26;12.00;99.90
31765;DHT22;18338;53.240;8.798;2023-05-07T07:16:52;12.00;99.90
31765;DHT22;18338;53.240;8.798;2023-05-07T07:19:19;12.00;99.90
31765;DHT22;18338;53.240;8.798;2023-05-07T07:21:46;12.10;99.90
31765;DHT22;18338;53.240;8.798;2023-05-07T07:24:14;12.30;99.90
31765;DHT22;18338;53.240;8.798;2023-05-07T07:26:45;12.20;99.90
31765;DHT22;18338;53.240;8.798;2023-05-07T07:29:13;12.10;99.90
31765;DHT22;18338;53.240;8.798;2023-05-07T07:31:39;12.10;99.90
31765;DHT22;18338;53.240;8.798;2023-05-07T07:34:07;12.20;99.90
31765;DHT22;18338;53.240;8.798;2023-05-07T07:36:34;12.10;99.90
31765;DHT22;18338;53.240;8.798;2023-05-07T07:39:12;12.10;99.90
31765;DHT22;18338;53.240;8.798;2023-05-07T07:41:38;12.30;99.90
31765;DHT22;18338;53.240;8.798;2023-05-07T07:44:05;12.40;99.90
31765;DHT22;18338;53.240;8.798;2023-05-07T07:46:34;12.40;99.90
31765;DHT22;18338;53.240;8.798;2023-05-07T07:49:01;12.50;99.90
31765;DHT22;18338;53.240;8.798;2023-05-07T07:51:28;12.50;99.90
31765;DHT22;18338;53.240;8.798;2023-05-07T07:53:55;12.60;99.90
31765;DHT22;18338;53.240;8.798;2023-05-07T07:56:24;12.40;99.90
31765;DHT22;18338;53.240;8.798;2023-05-07T07:58:51;12.60;99.90
31765;DHT22;18338;53.240;8.798;2023-05-07T08:01:17;12.70;99.90
31765;DHT22;18338;53.240;8.798;2023-05-07T08:03:44;12.90;99.90
31765;DHT22;18338;53.240;8.798;2023-05-07T08:06:11;12.90;99.90
31765;DHT22;18338;53.240;8.798;2023-05-07T08:08:37;12.90;99.90
31765;DHT22;18338;53.240;8.798;2023-05-07T08:11:04;12.90;99.90
31765;DHT22;18338;53.240;8.798;2023-05-07T08:13:30;12.90;99.90
31765;DHT22;18338;53.240;8.798;2023-05-07T08:15:57;13.00;99.90
31765;DHT22;18338;53.240;8.798;2023-05-07T08:18:25;13.10;99.90
31765;DHT22;18338;53.240;8.798;2023-05-07T08:20:53;13.20;99.90
31765;DHT22;18338;53.240;8.798;2023-05-07T08:23:21;13.20;99.90
31765;DHT22;18338;53.240;8.798;2023-05-07T08:25:49;13.30;99.90
31765;DHT22;18338;53.240;8.798;2023-05-07T08:28:20;13.40;99.90
31765;DHT22;18338;53.240;8.798;2023-05-07T08:30:47;13.30;99.90
31765;DHT22;18338;53.240;8.798;2023-05-07T08:33:14;13.40;99.90
31765;DHT22;18338;53.240;8.798;2023-05-07T08:35:46;13.60;99.90
31765;DHT22;18338;53.240;8.798;2023-05-07T08:38:13;13.70;99.90
31765;DHT22;18338;53.240;8.798;2023-05-07T08:40:40;13.80;99.90
31765;DHT22;18338;53.240;8.798;2023-05-07T08:43:14;13.90;99.90
31765;DHT22;18338;53.240;8.798;2023-05-07T08:45:45;13.90;99.90
31765;DHT22;18338;53.240;8.798;2023-05-07T08:48:16;13.80;99.90
31765;DHT22;18338;53.240;8.798;2023-05-07T08:50:43;14.00;99.90
31765;DHT22;18338;53.240;8.798;2023-05-07T08:53:12;13.80;99.90
31765;DHT22;18338;53.240;8.798;2023-05-07T08:55:39;13.70;99.90
31765;DHT22;18338;53.240;8.798;2023-05-07T08:58:06;13.40;99.90
31765;DHT22;18338;53.240;8.798;2023-05-07T09:00:33;13.50;99.90
31765;DHT22;18338;53.240;8.798;2023-05-07T09:03:00;13.70;99.90
31765;DHT22;18338;53.240;8.798;2023-05-07T09:05:27;13.90;99.90
31765;DHT22;18338;53.240;8.798;2023-05-07T09:07:54;14.00;99.90
31765;DHT22;18338;53.240;8.798;2023-05-07T09:10:24;14.00;99.90
31765;DHT22;18338;53.240;8.798;2023-05-07T09:12:52;13.80;99.90
31765;DHT22;18338;53.240;8.798;2023-05-07T09:15:19;13.90;99.90
31765;DHT22;18338;53.240;8.798;2023-05-07T09:17:46;13.90;99.90
31765;DHT22;18338;53.240;8.798;2023-05-07T09:20:13;14.10;99.90
31765;DHT22;18338;53.240;8.798;2023-05-07T09:22:40;14.20;99.90
31765;DHT22;18338;53.240;8.798;2023-05-07T09:25:07;14.40;99.90
31765;DHT22;18338;53.240;8.798;2023-05-07T09:27:35;14.70;99.90
31765;DHT22;18338;53.240;8.798;2023-05-07T09:30:08;15.00;99.90
31765;DHT22;18338;53.240;8.798;2023-05-07T09:32:36;15.30;99.90
31765;DHT22;18338;53.240;8.798;2023-05-07T09:35:14;15.30;99.90
31765;DHT22;18338;53.240;8.798;2023-05-07T09:37:43;15.10;99.90
31765;DHT22;18338;53.240;8.798;2023-05-07T09:40:21;15.10;99.90
31765;DHT22;18338;53.240;8.798;2023-05-07T09:42:49;15.20;99.90
31765;DHT22;18338;53.240;8.798;2023-05-07T09:45:30;15.10;99.90
31765;DHT22;18338;53.240;8.798;2023-05-07T09:47:58;15.00;99.90
31765;DHT22;18338;53.240;8.798;2023-05-07T09:50:29;15.20;99.90
31765;DHT22;18338;53.240;8.798;2023-05-07T09:52:57;15.20;99.90
31765;DHT22;18338;53.240;8.798;2023-05-07T09:55:24;15.20;99.90
31765;DHT22;18338;53.240;8.798;2023-05-07T09:57:52;15.00;99.90
31765;DHT22;18338;53.240;8.798;2023-05-07T10:00:20;14.90;99.90
31765;DHT22;18338;53.240;8.798;2023-05-07T10:02:52;15.00;99.90
31765;DHT22;18338;53.240;8.798;2023-05-07T10:05:19;15.00;99.90
31765;DHT22;18338;53.240;8.798;2023-05-07T10:07:50;15.00;99.90
31765;DHT22;18338;53.240;8.798;2023-05-07T10:10:18;14.90;99.90
31765;DHT22;18338;53.240;8.798;2023-05-07T10:12:46;14.70;99.90
31765;DHT22;18338;53.240;8.798;2023-05-07T10:15:13;14.30;99.90
31765;DHT22;18338;53.240;8.798;2023-05-07T10:17:41;14.10;99.90
31765;DHT22;18338;53.240;8.798;2023-05-07T10:20:08;14.20;99.90
31765;DHT22;18338;53.240;8.798;2023-05-07T10:22:41;14.40;99.90
31765;DHT22;18338;53.240;8.798;2023-05-07T10:25:16;15.00;99.90
31765;DHT22;18338;53.240;8.798;2023-05-07T10:27:46;15.40;99.90
31765;DHT22;18338;53.240;8.798;2023-05-07T10:32:49;15.90;99.90
31765;DHT22;18338;53.240;8.798;2023-05-07T10:35:23;16.30;99.90
31765;DHT22;18338;53.240;8.798;2023-05-07T10:37:51;16.70;99.90
31765;DHT22;18338;53.240;8.798;2023-05-07T10:40:17;16.80;99.90
31765;DHT22;18338;53.240;8.798;2023-05-07T10:42:57;17.00;99.90
31765;DHT22;18338;53.240;8.798;2023-05-07T10:45:26;16.80;99.90
31765;DHT22;18338;53.240;8.798;2023-05-07T10:48:13;16.60;99.90
31765;DHT22;18338;53.240;8.798;2023-05-07T10:51:18;16.40;99.90
31765;DHT22;18338;53.240;8.798;2023-05-07T10:53:45;16.60;99.90
31765;DHT22;18338;53.240;8.798;2023-05-07T10:58:45;16.70;99.90
31765;DHT22;18338;53.240;8.798;2023-05-07T11:01:12;16.30;99.90
31765;DHT22;18338;53.240;8.798;2023-05-07T11:04:16;16.10;99.90
31765;DHT22;18338;53.240;8.798;2023-05-07T11:15:11;16.70;99.90
31765;DHT22;18338;53.240;8.798;2023-05-07T11:17:54;17.10;99.90
31765;DHT22;18338;53.240;8.798;2023-05-07T11:21:14;17.70;99.90
31765;DHT22;18338;53.240;8.798;2023-05-07T11:26:04;18.30;99.90
31765;DHT22;18338;53.240;8.798;2023-05-07T11:28:37;18.60;99.90
31765;DHT22;18338;53.240;8.798;2023-05-07T11:31:04;19.10;99.90
31765;DHT22;18338;53.240;8.798;2023-05-07T11:33:31;19.60;99.90
31765;DHT22;18338;53.240;8.798;2023-05-07T11:35:59;20.10;99.90
31765;DHT22;18338;53.240;8.798;2023-05-07T11:38:27;20.40;99.90
31765;DHT22;18338;53.240;8.798;2023-05-07T11:40:57;20.70;99.90
31765;DHT22;18338;53.240;8.798;2023-05-07T11:43:25;20.70;99.90
31765;DHT22;18338;53.240;8.798;2023-05-07T11:45:53;20.70;99.90
31765;DHT22;18338;53.240;8.798;2023-05-07T11:48:21;21.40;99.90
31765;DHT22;18338;53.240;8.798;2023-05-07T11:51:11;21.40;99.90
31765;DHT22;18338;53.240;8.798;2023-05-07T11:53:50;21.30;99.90
31765;DHT22;18338;53.240;8.798;2023-05-07T11:56:19;20.60;99.90
31765;DHT22;18338;53.240;8.798;2023-05-07T11:58:53;20.10;99.90
31765;DHT22;18338;53.240;8.798;2023-05-07T12:01:28;20.00;99.90
31765;DHT22;18338;53.240;8.798;2023-05-07T12:06:28;19.90;99.90
31765;DHT22;18338;53.240;8.798;2023-05-07T12:08:54;20.20;99.90
31765;DHT22;18338;53.240;8.798;2023-05-07T12:11:25;20.60;99.90
31765;DHT22;18338;53.240;8.798;2023-05-07T12:13:53;21.40;99.90
31765;DHT22;18338;53.240;8.798;2023-05-07T12:16:24;21.90;99.90
31765;DHT22;18338;53.240;8.798;2023-05-07T12:18:51;21.60;99.90
31765;DHT22;18338;53.240;8.798;2023-05-07T12:21:21;22.10;99.90
31765;DHT22;18338;53.240;8.798;2023-05-07T12:23:48;22.70;99.90
31765;DHT22;18338;53.240;8.798;2023-05-07T12:26:15;22.70;99.90
31765;DHT22;18338;53.240;8.798;2023-05-07T12:28:41;23.10;99.90
31765;DHT22;18338;53.240;8.798;2023-05-07T12:31:08;23.60;99.10
31765;DHT22;18338;53.240;8.798;2023-05-07T12:33:35;24.10;97.10
31765;DHT22;18338;53.240;8.798;2023-05-07T12:36:05;23.60;96.80
31765;DHT22;18338;53.240;8.798;2023-05-07T12:38:39;23.00;97.20
31765;DHT22;18338;53.240;8.798;2023-05-07T12:41:09;22.80;98.00
31765;DHT22;18338;53.240;8.798;2023-05-07T12:43:36;22.70;98.80
31765;DHT22;18338;53.240;8.798;2023-05-07T12:46:05;22.50;99.70
31765;DHT22;18338;53.240;8.798;2023-05-07T12:48:32;21.70;99.50
31765;DHT22;18338;53.240;8.798;2023-05-07T12:51:00;21.10;99.90
31765;DHT22;18338;53.240;8.798;2023-05-07T12:53:28;21.30;99.90
31765;DHT22;18338;53.240;8.798;2023-05-07T12:55:56;21.40;99.90
31765;DHT22;18338;53.240;8.798;2023-05-07T13:00:54;20.90;99.90
31765;DHT22;18338;53.240;8.798;2023-05-07T13:03:31;20.70;99.90
31765;DHT22;18338;53.240;8.798;2023-05-07T13:06:02;20.70;99.90
31765;DHT22;18338;53.240;8.798;2023-05-07T13:08:34;20.90;99.90
31765;DHT22;18338;53.240;8.798;2023-05-07T13:11:02;21.00;99.90
31765;DHT22;18338;53.240;8.798;2023-05-07T13:13:34;21.30;99.90
31765;DHT22;18338;53.240;8.798;2023-05-07T13:16:01;22.30;99.90
31765;DHT22;18338;53.240;8.798;2023-05-07T13:18:33;22.90;99.90
31765;DHT22;18338;53.240;8.798;2023-05-07T13:21:00;23.60;97.00
31765;DHT22;18338;53.240;8.798;2023-05-07T13:23:27;23.90;98.00
31765;DHT22;18338;53.240;8.798;2023-05-07T13:25:54;25.00;94.30
31765;DHT22;18338;53.240;8.798;2023-05-07T13:28:24;25.60;92.80
31765;DHT22;18338;53.240;8.798;2023-05-07T13:30:51;25.70;92.20
31765;DHT22;18338;53.240;8.798;2023-05-07T13:33:18;25.90;91.80
31765;DHT22;18338;53.240;8.798;2023-05-07T13:35:45;27.10;90.20
31765;DHT22;18338;53.240;8.798;2023-05-07T13:38:11;27.80;89.10
31765;DHT22;18338;53.240;8.798;2023-05-07T13:40:38;27.90;88.50
31765;DHT22;18338;53.240;8.798;2023-05-07T13:43:05;28.00;84.60
31765;DHT22;18338;53.240;8.798;2023-05-07T13:45:32;27.20;86.70
31765;DHT22;18338;53.240;8.798;2023-05-07T13:48:00;27.20;85.50
31765;DHT22;18338;53.240;8.798;2023-05-07T13:50:27;26.50;86.00
31765;DHT22;18338;53.240;8.798;2023-05-07T13:52:55;25.90;90.20
31765;DHT22;18338;53.240;8.798;2023-05-07T13:55:23;26.70;86.80
31765;DHT22;18338;53.240;8.798;2023-05-07T13:58:01;27.90;83.10
31765;DHT22;18338;53.240;8.798;2023-05-07T14:00:32;28.90;80.40
31765;DHT22;18338;53.240;8.798;2023-05-07T14:02:59;29.60;78.10
31765;DHT22;18338;53.240;8.798;2023-05-07T14:05:26;29.40;79.40
31765;DHT22;18338;53.240;8.798;2023-05-07T14:07:57;29.30;77.80
31765;DHT22;18338;53.240;8.798;2023-05-07T14:10:24;29.80;76.70
31765;DHT22;18338;53.240;8.798;2023-05-07T14:12:51;30.30;76.90
31765;DHT22;18338;53.240;8.798;2023-05-07T14:15:19;30.70;74.60
31765;DHT22;18338;53.240;8.798;2023-05-07T14:17:45;30.10;72.90
31765;DHT22;18338;53.240;8.798;2023-05-07T14:20:13;30.60;74.90
31765;DHT22;18338;53.240;8.798;2023-05-07T14:22:40;31.10;71.60
31765;DHT22;18338;53.240;8.798;2023-05-07T14:25:07;30.20;70.60
31765;DHT22;18338;53.240;8.798;2023-05-07T14:27:34;30.30;74.30
31765;DHT22;18338;53.240;8.798;2023-05-07T14:30:01;29.90;73.80
31765;DHT22;18338;53.240;8.798;2023-05-07T14:32:28;29.80;71.20
31765;DHT22;18338;53.240;8.798;2023-05-07T14:34:54;29.70;74.40
31765;DHT22;18338;53.240;8.798;2023-05-07T14:37:21;30.10;71.70
31765;DHT22;18338;53.240;8.798;2023-05-07T14:39:47;28.90;74.20
31765;DHT22;18338;53.240;8.798;2023-05-07T14:42:17;27.70;76.10
31765;DHT22;18338;53.240;8.798;2023-05-07T14:44:44;27.50;77.20
31765;DHT22;18338;53.240;8.798;2023-05-07T14:47:12;28.30;77.00
31765;DHT22;18338;53.240;8.798;2023-05-07T14:49:39;29.10;74.20
31765;DHT22;18338;53.240;8.798;2023-05-07T14:52:05;29.10;72.80
31765;DHT22;18338;53.240;8.798;2023-05-07T14:54:34;28.40;76.20
31765;DHT22;18338;53.240;8.798;2023-05-07T14:57:05;28.20;75.30
31765;DHT22;18338;53.240;8.798;2023-05-07T14:59:32;28.20;76.20
31765;DHT22;18338;53.240;8.798;2023-05-07T15:01:59;26.70;78.30
31765;DHT22;18338;53.240;8.798;2023-05-07T15:04:28;26.20;78.90
31765;DHT22;18338;53.240;8.798;2023-05-07T15:06:55;25.00;82.90
31765;DHT22;18338;53.240;8.798;2023-05-07T15:09:22;24.60;86.80
31765;DHT22;18338;53.240;8.798;2023-05-07T15:11:49;25.50;87.60
31765;DHT22;18338;53.240;8.798;2023-05-07T15:14:15;27.00;82.30
31765;DHT22;18338;53.240;8.798;2023-05-07T15:16:42;27.30;80.00
31765;DHT22;18338;53.240;8.798;2023-05-07T15:19:09;27.50;79.00
31765;DHT22;18338;53.240;8.798;2023-05-07T15:21:35;27.70;75.70
31765;DHT22;18338;53.240;8.798;2023-05-07T15:24:02;27.50;75.50
31765;DHT22;18338;53.240;8.798;2023-05-07T15:26:29;28.00;76.10
31765;DHT22;18338;53.240;8.798;2023-05-07T15:28:57;28.00;75.40
31765;DHT22;18338;53.240;8.798;2023-05-07T15:31:24;27.60;77.20
31765;DHT22;18338;53.240;8.798;2023-05-07T15:33:52;27.10;77.20
31765;DHT22;18338;53.240;8.798;2023-05-07T15:36:20;27.30;77.80
31765;DHT22;18338;53.240;8.798;2023-05-07T15:38:46;27.30;76.20
31765;DHT22;18338;53.240;8.798;2023-05-07T15:41:13;27.20;77.20
31765;DHT22;18338;53.240;8.798;2023-05-07T15:43:48;27.60;77.00
31765;DHT22;18338;53.240;8.798;2023-05-07T15:46:20;27.40;75.70
31765;DHT22;18338;53.240;8.798;2023-05-07T15:48:47;27.20;76.50
31765;DHT22;18338;53.240;8.798;2023-05-07T15:51:14;27.10;76.70
31765;DHT22;18338;53.240;8.798;2023-05-07T15:53:41;26.30;76.70
31765;DHT22;18338;53.240;8.798;2023-05-07T15:56:08;24.90;79.10
31765;DHT22;18338;53.240;8.798;2023-05-07T15:58:35;24.00;82.30
31765;DHT22;18338;53.240;8.798;2023-05-07T16:01:02;22.90;86.50